createdAt,value
2023-04-08T00:01:23.221Z,72.71
2023-04-08T00:03:52.533Z,73.08
2023-04-08T00:06:21.295Z,72.86
2023-04-08T00:08:50.570Z,73.12
2023-04-08T00:11:19.721Z,74.25
2023-04-08T00:13:48.560Z,74.34
2023-04-08T00:16:17.231Z,74.24
2023-04-08T00:18:47.694Z,74.28
2023-04-08T00:21:18.013Z,74.49
2023-04-08T00:23:46.978Z,73.01
2023-04-08T00:26:15.708Z,73.57
2023-04-08T00:28:47.608Z,73.91
2023-04-08T00:31:17.034Z,73.14
2023-04-08T00:33:47.113Z,73.79
2023-04-08T00:36:15.789Z,74.71
2023-04-08T00:38:44.746Z,73.53
2023-04-08T00:41:13.933Z,73.92
2023-04-08T00:43:42.612Z,73.77
2023-04-08T00:46:12.320Z,73.98
2023-04-08T00:48:41.034Z,73.68
2023-04-08T00:51:11.211Z,75.07
2023-04-08T00:53:40.182Z,75.21
2023-04-08T00:56:08.849Z,75.45
2023-04-08T00:58:37.714Z,74.56
2023-04-08T01:01:11.280Z,74.97
2023-04-08T01:03:46.220Z,75.40
2023-04-08T01:06:20.605Z,74.87
2023-04-08T01:08:50.423Z,75.37
2023-04-08T01:11:20.118Z,75.33
2023-04-08T01:13:50.504Z,74.94
2023-04-08T01:16:20.533Z,76.17
2023-04-08T01:18:53.065Z,75.90
2023-04-08T01:21:23.565Z,75.77
2023-04-08T01:23:58.484Z,75.61
2023-04-08T01:26:29.132Z,75.34
2023-04-08T01:28:59.828Z,74.89
2023-04-08T01:31:28.874Z,75.19
2023-04-08T01:34:01.850Z,74.74
2023-04-08T01:36:30.646Z,74.46
2023-04-08T01:38:59.376Z,74.83
2023-04-08T01:41:29.570Z,74.95
2023-04-08T01:44:00.304Z,74.46
2023-04-08T01:46:29.119Z,73.94
2023-04-08T01:48:58.982Z,74.00
2023-04-08T01:51:28.105Z,73.13
2023-04-08T01:53:58.639Z,73.33
2023-04-08T01:56:30.796Z,73.93
2023-04-08T01:59:00.464Z,74.11
2023-04-08T02:01:30.986Z,74.57
2023-04-08T02:04:00.971Z,74.80
2023-04-08T02:06:30.027Z,75.41
2023-04-08T02:08:58.871Z,74.84
2023-04-08T02:11:30.678Z,74.64
2023-04-08T02:14:00.770Z,74.70
2023-04-08T02:16:34.243Z,74.72
2023-04-08T02:19:07.047Z,75.16
2023-04-08T02:21:42.765Z,75.48
2023-04-08T02:24:14.568Z,75.12
2023-04-08T02:26:44.338Z,74.43
2023-04-08T02:29:16.728Z,74.68
2023-04-08T02:31:46.826Z,74.93
2023-04-08T02:34:16.130Z,76.39
2023-04-08T02:36:47.416Z,76.85
2023-04-08T02:39:16.293Z,74.66
2023-04-08T02:41:45.431Z,77.60
2023-04-08T02:44:15.468Z,77.14
2023-04-08T02:46:44.200Z,76.57
2023-04-08T02:49:13.142Z,77.67
2023-04-08T02:51:41.732Z,77.49
2023-04-08T02:54:10.481Z,78.49
2023-04-08T02:56:39.454Z,77.68
2023-04-08T02:59:17.497Z,77.71
2023-04-08T03:01:46.566Z,78.29
2023-04-08T03:04:16.652Z,77.56
2023-04-08T03:06:46.732Z,77.38
2023-04-08T03:09:19.739Z,79.22
2023-04-08T03:11:53.112Z,79.00
2023-04-08T03:14:23.525Z,77.54
2023-04-08T03:16:52.217Z,78.11
2023-04-08T03:19:20.968Z,77.09
2023-04-08T03:21:49.905Z,77.03
2023-04-08T03:24:18.531Z,76.63
2023-04-08T03:26:47.168Z,78.17
2023-04-08T03:29:16.196Z,78.04
2023-04-08T03:31:46.427Z,77.11
2023-04-08T03:34:15.139Z,77.43
2023-04-08T03:36:44.067Z,76.90
2023-04-08T03:39:12.744Z,76.05
2023-04-08T03:41:41.393Z,76.35
2023-04-08T03:44:10.548Z,75.06
2023-04-08T03:46:39.218Z,75.52
2023-04-08T03:49:09.278Z,76.97
2023-04-08T03:51:39.350Z,76.62
2023-04-08T03:54:08.044Z,77.25
2023-04-08T03:56:36.690Z,77.85
2023-04-08T03:59:05.784Z,78.01
2023-04-08T04:01:34.486Z,77.90
2023-04-08T04:04:03.768Z,76.94
2023-04-08T04:06:33.967Z,77.82
2023-04-08T04:09:02.932Z,77.47
2023-04-08T04:11:31.818Z,78.33
2023-04-08T04:14:00.390Z,78.36
2023-04-08T04:16:31.574Z,78.27
2023-04-08T04:19:01.522Z,77.78
2023-04-08T04:21:30.613Z,79.89
2023-04-08T04:24:00.560Z,77.27
2023-04-08T04:26:29.237Z,77.68
2023-04-08T04:28:58.152Z,76.76
2023-04-08T04:31:27.302Z,76.75
2023-04-08T04:33:56.261Z,75.95
2023-04-08T04:36:27.512Z,77.15
2023-04-08T04:38:56.757Z,77.29
2023-04-08T04:41:27.365Z,77.21
2023-04-08T04:43:55.979Z,77.75
2023-04-08T04:46:24.698Z,77.60
2023-04-08T04:48:53.620Z,77.88
2023-04-08T04:51:22.282Z,76.71
2023-04-08T04:53:51.092Z,76.83
2023-04-08T04:56:21.260Z,76.94
2023-04-08T04:58:51.893Z,76.33
2023-04-08T05:01:21.536Z,77.07
2023-04-08T05:03:50.238Z,78.69
2023-04-08T05:06:18.882Z,77.70
2023-04-08T05:08:48.111Z,79.10
2023-04-08T05:11:18.444Z,79.30
2023-04-08T05:13:47.445Z,77.54
2023-04-08T05:16:17.886Z,79.22
2023-04-08T05:18:46.776Z,78.03
2023-04-08T05:21:15.682Z,77.41
2023-04-08T05:23:44.262Z,76.96
2023-04-08T05:26:14.179Z,77.02
2023-04-08T05:28:43.831Z,78.46
2023-04-08T05:31:12.955Z,78.37
2023-04-08T05:33:43.228Z,77.72
2023-04-08T05:36:12.124Z,76.97
2023-04-08T05:38:42.672Z,78.41
2023-04-08T05:41:11.575Z,78.87
2023-04-08T05:43:40.452Z,77.88
2023-04-08T05:46:10.806Z,79.07
2023-04-08T05:48:39.763Z,78.18
2023-04-08T05:51:14.828Z,79.07
2023-04-08T05:53:43.775Z,79.81
2023-04-08T05:56:12.354Z,79.20
2023-04-08T05:58:41.061Z,77.82
2023-04-08T06:01:10.002Z,77.47
2023-04-08T06:03:39.074Z,77.85
2023-04-08T06:06:12.890Z,77.99
2023-04-08T06:08:43.314Z,78.65
2023-04-08T06:11:11.925Z,78.73
2023-04-08T06:13:40.814Z,76.93
2023-04-08T06:16:13.488Z,77.59
2023-04-08T06:18:42.326Z,77.60
2023-04-08T06:21:12.675Z,76.66
2023-04-08T06:23:41.344Z,78.36
2023-04-08T06:26:10.067Z,77.48
2023-04-08T06:28:39.076Z,76.43
2023-04-08T06:31:07.739Z,75.50
2023-04-08T06:33:36.330Z,75.24
2023-04-08T06:36:06.037Z,74.68
2023-04-08T06:38:36.211Z,75.44
2023-04-08T06:41:05.359Z,75.34
2023-04-08T06:43:34.372Z,74.97
2023-04-08T06:46:03.249Z,75.01
2023-04-08T06:48:32.274Z,74.90
2023-04-08T06:51:01.964Z,74.84
2023-04-08T06:53:31.348Z,74.42
2023-04-08T06:56:04.352Z,73.24
2023-04-08T06:58:33.027Z,73.25
2023-04-08T07:01:03.304Z,73.75
2023-04-08T07:03:32.062Z,73.34
2023-04-08T07:06:00.809Z,73.33
2023-04-08T07:08:29.800Z,73.38
2023-04-08T07:10:58.460Z,74.33
2023-04-08T07:13:29.516Z,74.39
2023-04-08T07:15:58.250Z,73.59
2023-04-08T07:18:26.844Z,73.72
2023-04-08T07:20:55.647Z,73.75
2023-04-08T07:23:24.898Z,73.25
2023-04-08T07:25:54.017Z,73.34
2023-04-08T07:28:22.681Z,73.48
2023-04-08T07:30:53.099Z,72.81
2023-04-08T07:33:21.768Z,73.29
2023-04-08T07:35:50.567Z,72.99
2023-04-08T07:38:19.598Z,73.57
2023-04-08T07:40:48.210Z,74.14
2023-04-08T07:43:16.987Z,73.97
2023-04-08T07:45:48.825Z,73.83
2023-04-08T07:48:18.888Z,73.81
2023-04-08T07:51:09.995Z,72.79
2023-04-08T07:53:36.486Z,73.76
2023-04-08T07:56:12.417Z,72.67
2023-04-08T07:58:41.898Z,73.28
2023-04-08T08:01:18.934Z,72.95
2023-04-08T08:03:49.864Z,74.40
2023-04-08T08:06:18.839Z,73.97
2023-04-08T08:08:47.492Z,72.99
2023-04-08T08:11:16.338Z,72.97
2023-04-08T08:13:45.013Z,72.88
2023-04-08T08:16:13.799Z,73.48
2023-04-08T08:18:42.735Z,73.56
2023-04-08T08:21:12.633Z,74.27
2023-04-08T08:23:41.243Z,74.42
2023-04-08T08:26:11.103Z,74.46
2023-04-08T08:28:40.346Z,73.58
2023-04-08T08:31:09.124Z,72.19
2023-04-08T08:33:38.054Z,71.46
2023-04-08T08:36:07.416Z,72.21
2023-04-08T08:38:37.521Z,72.33
2023-04-08T08:41:06.664Z,72.45
2023-04-08T08:43:35.796Z,72.49
2023-04-08T08:46:04.483Z,72.18
2023-04-08T08:48:34.137Z,72.37
2023-04-08T08:51:02.759Z,72.97
2023-04-08T08:53:35.660Z,72.67
2023-04-08T08:56:17.768Z,72.53
2023-04-08T08:58:47.659Z,71.76
2023-04-08T09:01:37.426Z,71.20
2023-04-08T09:04:16.721Z,71.46
2023-04-08T09:06:47.765Z,71.58
2023-04-08T09:09:16.503Z,71.66
2023-04-08T09:11:47.697Z,72.33
2023-04-08T09:14:24.044Z,74.72
2023-04-08T09:16:53.562Z,72.60
2023-04-08T09:19:22.815Z,72.67
2023-04-08T09:22:06.942Z,73.54
2023-04-08T09:24:37.134Z,73.80
2023-04-08T09:27:07.298Z,72.81
2023-04-08T09:29:39.282Z,72.42
2023-04-08T09:32:08.731Z,73.05
2023-04-08T09:34:37.755Z,72.68
2023-04-08T09:37:07.287Z,72.11
2023-04-08T09:39:36.161Z,71.74
2023-04-08T09:42:09.836Z,72.99
2023-04-08T09:44:38.685Z,71.89
2023-04-08T09:47:11.920Z,71.88
2023-04-08T09:49:47.731Z,72.57
2023-04-08T09:52:22.843Z,73.14
2023-04-08T09:55:02.446Z,75.13
2023-04-08T09:57:41.720Z,75.17
2023-04-08T10:00:13.013Z,73.71
2023-04-08T10:02:47.460Z,73.73
2023-04-08T10:05:18.530Z,74.76
2023-04-08T10:07:47.227Z,76.20
2023-04-08T10:10:16.453Z,75.38
2023-04-08T10:12:46.826Z,74.00
2023-04-08T10:15:28.383Z,73.79
2023-04-08T10:17:58.356Z,73.95
2023-04-08T10:20:43.513Z,72.73
2023-04-08T10:23:14.099Z,72.20
2023-04-08T10:25:44.836Z,72.17
2023-04-08T10:28:27.482Z,72.28
2023-04-08T10:30:57.509Z,72.20
2023-04-08T10:33:34.632Z,74.20
2023-04-08T10:36:11.457Z,73.24
2023-04-08T10:38:42.363Z,73.84
2023-04-08T10:41:12.047Z,72.77
2023-04-08T10:43:42.441Z,72.12
2023-04-08T10:46:11.930Z,71.19
2023-04-08T10:48:41.007Z,71.25
2023-04-08T10:51:09.663Z,71.40
2023-04-08T10:53:39.794Z,72.95
2023-04-08T10:56:11.090Z,72.63
2023-04-08T10:58:49.296Z,71.61
2023-04-08T11:01:18.544Z,71.51
2023-04-08T11:03:50.418Z,70.41
2023-04-08T11:06:20.164Z,69.92
2023-04-08T11:08:48.809Z,69.93
2023-04-08T11:11:17.459Z,70.50
2023-04-08T11:13:52.725Z,70.53
2023-04-08T11:16:23.115Z,70.68
2023-04-08T11:18:52.825Z,70.17
2023-04-08T11:21:22.358Z,71.21
2023-04-08T11:23:51.761Z,70.58
2023-04-08T11:26:21.215Z,70.40
2023-04-08T11:28:52.405Z,71.36
2023-04-08T11:31:24.301Z,70.48
2023-04-08T11:33:56.240Z,69.51
2023-04-08T11:36:26.058Z,68.59
2023-04-08T11:38:55.750Z,68.49
2023-04-08T11:41:24.510Z,67.67
2023-04-08T11:43:58.494Z,67.41
2023-04-08T11:46:27.367Z,68.10
2023-04-08T11:49:04.002Z,68.07
2023-04-08T11:51:34.353Z,67.83
2023-04-08T11:54:06.245Z,67.88
2023-04-08T11:56:46.474Z,68.74
2023-04-08T11:59:16.798Z,68.11
2023-04-08T12:01:47.511Z,68.26
2023-04-08T12:04:16.641Z,68.09
2023-04-08T12:06:47.150Z,70.49
2023-04-08T12:09:16.055Z,70.87
2023-04-08T12:11:44.629Z,71.10
2023-04-08T12:14:13.312Z,70.97
2023-04-08T12:16:43.609Z,70.57
2023-04-08T12:19:12.361Z,70.02
2023-04-08T12:21:41.080Z,71.43
2023-04-08T12:24:10.072Z,70.91
2023-04-08T12:26:38.863Z,70.57
2023-04-08T12:29:09.520Z,71.11
2023-04-08T12:31:38.820Z,70.86
2023-04-08T12:34:08.861Z,71.24
2023-04-08T12:36:39.006Z,72.12
2023-04-08T12:39:08.955Z,70.82
2023-04-08T12:41:37.786Z,69.77
2023-04-08T12:44:06.636Z,70.66
2023-04-08T12:46:38.612Z,70.61
2023-04-08T12:49:09.150Z,70.25
2023-04-08T12:51:38.005Z,70.98
2023-04-08T12:54:06.887Z,71.14
2023-04-08T12:56:35.661Z,69.52
2023-04-08T12:59:04.356Z,69.23
2023-04-08T13:01:33.373Z,71.12
2023-04-08T13:04:02.294Z,69.97
2023-04-08T13:06:33.051Z,70.18
2023-04-08T13:09:01.954Z,69.81
2023-04-08T13:11:30.970Z,70.62
2023-04-08T13:13:59.674Z,69.95
2023-04-08T13:16:28.745Z,68.48
2023-04-08T13:18:57.378Z,69.77
2023-04-08T13:21:26.712Z,70.06
2023-04-08T13:23:56.934Z,68.70
2023-04-08T13:26:26.620Z,71.49
2023-04-08T13:29:00.664Z,70.86
2023-04-08T13:31:29.920Z,70.01
2023-04-08T13:34:01.386Z,70.52
2023-04-08T13:36:30.084Z,70.99
2023-04-08T13:39:00.502Z,70.67
2023-04-08T13:41:30.074Z,69.96
2023-04-08T13:43:59.068Z,69.02
2023-04-08T13:46:27.810Z,68.81
2023-04-08T13:48:56.518Z,69.16
2023-04-08T13:51:25.475Z,68.41
2023-04-08T13:53:54.152Z,68.86
2023-04-08T13:56:24.184Z,69.40
2023-04-08T13:58:57.220Z,69.39
2023-04-08T14:01:26.459Z,68.51
2023-04-08T14:03:55.700Z,68.03
2023-04-08T14:06:24.413Z,67.21
2023-04-08T14:08:53.423Z,66.81
2023-04-08T14:11:23.987Z,66.96
2023-04-08T14:13:52.599Z,66.96
2023-04-08T14:16:21.497Z,67.41
2023-04-08T14:18:53.661Z,68.33
2023-04-08T14:21:22.566Z,67.96
2023-04-08T14:23:52.692Z,66.83
2023-04-08T14:26:21.716Z,67.23
2023-04-08T14:28:52.113Z,66.71
2023-04-08T14:31:21.274Z,66.76
2023-04-08T14:33:49.965Z,66.72
2023-04-08T14:36:19.083Z,66.52
2023-04-08T14:38:48.162Z,66.29
2023-04-08T14:41:16.963Z,67.05
2023-04-08T14:43:45.617Z,67.49
2023-04-08T14:46:16.782Z,67.62
2023-04-08T14:48:45.494Z,67.24
2023-04-08T14:51:14.404Z,67.03
2023-04-08T14:53:43.035Z,67.86
2023-04-08T14:56:11.918Z,66.78
2023-04-08T14:58:41.010Z,66.03
2023-04-08T15:01:09.724Z,66.75
2023-04-08T15:03:39.898Z,67.54
2023-04-08T15:06:08.904Z,67.59
2023-04-08T15:08:37.604Z,68.19
2023-04-08T15:11:06.364Z,67.76
2023-04-08T15:13:38.121Z,67.60
2023-04-08T15:16:07.009Z,67.71
2023-04-08T15:18:37.472Z,67.62
2023-04-08T15:21:07.559Z,67.31
2023-04-08T15:23:40.650Z,68.21
2023-04-08T15:26:34.444Z,67.62
2023-04-08T15:29:04.370Z,67.92
2023-04-08T15:31:34.960Z,67.32
2023-04-08T15:34:04.244Z,67.77
2023-04-08T15:36:42.938Z,67.88
2023-04-08T15:39:12.095Z,67.68
2023-04-08T15:41:41.701Z,68.57
2023-04-08T15:44:10.418Z,68.57
2023-04-08T15:46:39.433Z,67.95
2023-04-08T15:49:08.217Z,66.98
2023-04-08T15:51:38.267Z,66.67
2023-04-08T15:54:07.280Z,65.73
2023-04-08T15:56:36.590Z,66.77
2023-04-08T15:59:05.707Z,66.18
2023-04-08T16:01:37.200Z,66.91
2023-04-08T16:04:06.315Z,67.59
2023-04-08T16:06:35.115Z,66.96
2023-04-08T16:09:05.078Z,66.76
2023-04-08T16:11:34.766Z,66.81
2023-04-08T16:14:04.975Z,66.99
2023-04-08T16:16:34.338Z,67.35
2023-04-08T16:19:03.283Z,66.64
2023-04-08T16:21:32.219Z,67.13
2023-04-08T16:24:01.605Z,66.83
2023-04-08T16:26:31.571Z,66.43
2023-04-08T16:29:00.494Z,66.54
2023-04-08T16:34:02.961Z,66.87
2023-04-08T16:36:31.855Z,66.61
2023-04-08T16:39:00.510Z,65.97
2023-04-08T16:41:29.065Z,66.94
2023-04-08T16:43:59.728Z,66.44
2023-04-08T16:46:28.345Z,66.52
2023-04-08T16:48:57.228Z,66.88
2023-04-08T16:51:26.226Z,66.35
2023-04-08T16:53:56.355Z,66.99
2023-04-08T16:56:27.707Z,66.66
2023-04-08T16:58:56.447Z,66.94
2023-04-08T17:01:27.099Z,67.36
2023-04-08T17:03:57.091Z,67.39
2023-04-08T17:06:27.197Z,67.72
2023-04-08T17:08:56.115Z,67.61
2023-04-08T17:11:24.867Z,68.20
2023-04-08T17:13:53.680Z,70.05
2023-04-08T17:16:22.793Z,70.72
2023-04-08T17:18:52.897Z,70.54
2023-04-08T17:21:21.835Z,69.67
2023-04-08T17:23:50.685Z,71.64
2023-04-08T17:26:19.439Z,70.32
2023-04-08T17:28:48.531Z,69.61
2023-04-08T17:31:17.205Z,69.92
2023-04-08T17:33:45.886Z,70.05
2023-04-08T17:36:17.521Z,70.36
2023-04-08T17:38:47.849Z,69.99
2023-04-08T17:41:29.818Z,69.90
2023-04-08T17:44:04.850Z,69.15
2023-04-08T17:46:33.899Z,69.33
2023-04-08T17:49:02.735Z,69.28
2023-04-08T17:51:33.029Z,68.87
2023-04-08T17:54:02.031Z,68.80
2023-04-08T17:56:31.068Z,68.74
2023-04-08T17:58:59.689Z,68.64
2023-04-08T18:01:28.790Z,68.17
2023-04-08T18:03:57.746Z,68.09
2023-04-08T18:06:26.540Z,68.50
2023-04-08T18:08:56.638Z,68.54
2023-04-08T18:11:26.638Z,68.72
2023-04-08T18:13:55.333Z,66.86
2023-04-08T18:16:24.311Z,68.17
2023-04-08T18:18:53.340Z,68.32
2023-04-08T18:21:22.368Z,67.74
2023-04-08T18:23:53.677Z,69.01
2023-04-08T18:26:24.027Z,67.94
2023-04-08T18:28:52.739Z,66.95
2023-04-08T18:31:21.717Z,67.24
2023-04-08T18:33:51.047Z,66.53
2023-04-08T18:36:19.970Z,67.64
2023-04-08T18:38:49.580Z,67.55
2023-04-08T18:41:20.965Z,68.04
2023-04-08T18:43:51.262Z,67.32
2023-04-08T18:46:20.563Z,68.29
2023-04-08T18:48:49.746Z,67.96
2023-04-08T18:51:18.440Z,68.26
2023-04-08T18:53:47.724Z,68.42
2023-04-08T18:56:16.724Z,68.46
2023-04-08T18:58:46.855Z,68.51
2023-04-08T19:01:17.579Z,68.54
2023-04-08T19:03:46.501Z,68.52
2023-04-08T19:06:17.357Z,68.29
2023-04-08T19:08:48.119Z,68.38
2023-04-08T19:11:19.568Z,68.28
2023-04-08T19:13:48.632Z,68.00
2023-04-08T19:16:19.030Z,68.09
2023-04-08T19:18:47.716Z,68.55
2023-04-08T19:21:16.329Z,68.95
2023-04-08T19:23:46.482Z,69.44
2023-04-08T19:26:15.172Z,68.96
2023-04-08T19:28:44.046Z,69.27
2023-04-08T19:31:18.227Z,68.77
2023-04-08T19:33:46.887Z,69.51
2023-04-08T19:36:15.997Z,68.57
2023-04-08T19:38:44.668Z,69.89
2023-04-08T19:41:13.545Z,69.48
2023-04-08T19:43:42.354Z,69.19
2023-04-08T19:46:11.057Z,69.17
2023-04-08T19:48:41.181Z,69.14
2023-04-08T19:51:10.331Z,69.13
2023-04-08T19:53:39.072Z,69.47
2023-04-08T19:56:10.873Z,69.45
2023-04-08T19:58:39.816Z,70.10
2023-04-08T20:01:10.013Z,70.00
2023-04-08T20:03:39.051Z,69.66
2023-04-08T20:06:09.768Z,69.29
2023-04-08T20:08:38.408Z,69.06
2023-04-08T20:11:07.333Z,70.25
2023-04-08T20:13:36.154Z,69.08
2023-04-08T20:16:07.840Z,69.19
2023-04-08T20:18:49.482Z,69.63
2023-04-08T20:21:19.707Z,69.53
2023-04-08T20:23:48.540Z,69.95
2023-04-08T20:26:17.241Z,69.31
2023-04-08T20:28:46.301Z,70.28
2023-04-08T20:31:16.245Z,69.67
2023-04-08T20:33:45.605Z,70.37
2023-04-08T20:36:17.378Z,70.49
2023-04-08T20:38:47.627Z,71.06
2023-04-08T20:41:19.999Z,70.83
2023-04-08T20:43:48.972Z,71.06
2023-04-08T20:46:17.773Z,70.50
2023-04-08T20:48:47.199Z,70.10
2023-04-08T20:51:17.391Z,70.43
2023-04-08T20:53:47.371Z,70.99
2023-04-08T20:56:16.490Z,70.70
2023-04-08T20:58:45.156Z,71.16
2023-04-08T21:01:13.922Z,70.66
2023-04-08T21:03:43.396Z,70.65
2023-04-08T21:06:18.876Z,70.17
2023-04-08T21:08:49.430Z,70.22
2023-04-08T21:11:18.509Z,70.02
2023-04-08T21:13:49.110Z,70.60
2023-04-08T21:16:18.332Z,69.92
2023-04-08T21:18:46.947Z,69.82
2023-04-08T21:21:15.660Z,70.21
2023-04-08T21:23:44.667Z,70.75
2023-04-08T21:26:14.769Z,70.13
2023-04-08T21:28:44.086Z,71.45
2023-04-08T21:31:13.743Z,70.73
2023-04-08T21:33:42.523Z,69.70
2023-04-08T21:36:11.427Z,70.02
2023-04-08T21:38:40.507Z,70.04
2023-04-08T21:41:09.081Z,70.66
2023-04-08T21:43:39.161Z,70.62
2023-04-08T21:46:08.786Z,70.43
2023-04-08T21:48:37.512Z,70.23
2023-04-08T21:51:06.965Z,69.83
2023-04-08T21:53:36.133Z,70.98
2023-04-08T21:56:05.760Z,71.34
2023-04-08T21:58:35.045Z,70.97
2023-04-08T22:01:05.599Z,71.28
2023-04-08T22:03:34.653Z,71.66
2023-04-08T22:06:03.639Z,70.72
2023-04-08T22:08:32.584Z,70.86
2023-04-08T22:11:01.558Z,71.20
2023-04-08T22:13:30.314Z,70.15
2023-04-08T22:15:58.989Z,70.47
2023-04-08T22:18:32.966Z,70.10
2023-04-08T22:21:13.566Z,70.32
2023-04-08T22:23:46.160Z,70.07
2023-04-08T22:26:15.769Z,70.20
2023-04-08T22:28:44.817Z,70.63
2023-04-08T22:31:14.038Z,70.60
2023-04-08T22:33:44.160Z,70.08
2023-04-08T22:36:13.397Z,70.11
2023-04-08T22:38:42.371Z,71.12
2023-04-08T22:41:18.766Z,70.42
2023-04-08T22:43:47.960Z,71.30
2023-04-08T22:46:18.312Z,70.48
2023-04-08T22:48:49.441Z,70.88
2023-04-08T22:51:18.329Z,70.53
2023-04-08T22:53:47.248Z,70.87
2023-04-08T22:56:15.912Z,71.31
2023-04-08T22:58:44.634Z,70.98
2023-04-08T23:01:14.740Z,71.01
2023-04-08T23:03:43.444Z,70.68
2023-04-08T23:06:13.591Z,71.37
2023-04-08T23:08:42.586Z,71.41
2023-04-08T23:11:11.317Z,70.44
2023-04-08T23:13:39.973Z,70.50
2023-04-08T23:16:10.310Z,70.51
2023-04-08T23:18:39.116Z,70.68
2023-04-08T23:21:07.744Z,70.96
2023-04-08T23:23:38.134Z,70.74
2023-04-08T23:26:06.741Z,69.88
2023-04-08T23:28:35.390Z,70.65
2023-04-08T23:31:05.791Z,70.57
2023-04-08T23:33:34.536Z,70.42
2023-04-08T23:36:08.205Z,70.66
2023-04-08T23:38:39.084Z,70.95
2023-04-08T23:41:08.500Z,70.75
2023-04-08T23:43:37.414Z,71.42
2023-04-08T23:46:06.196Z,71.20
2023-04-08T23:48:34.886Z,70.75
2023-04-08T23:51:03.896Z,71.33
2023-04-08T23:53:32.485Z,70.94
2023-04-08T23:56:07.174Z,71.07
2023-04-08T23:58:39.621Z,70.71
